Red Wing, Minnesota
Current Conditions -  °F | °C
As of 8:50 AM on Monday 22 Dec 2014 (Local Time) from KRGK Reporting Station
Haze Haze  
Wind Chill: 29°   Ceiling: 800
Heat Index: 36°   Visibility: 1.7mi
Dew Point: 36°   Wind: 9mph
Humidity: 100%   Direction: 140°SE
Pressure: 29.69"   Gusts: NA
Location:  44.57°N, 92.53°W
Report Text: KRGK 221450Z AUTO 14008KT 1 3/4SM BR OVC008 02/02 A2969 RMK AO2
Loading
Personal Weather Stations






























Interactive Weather Map New forecast layout! Learn more

10-Day Weather Forecast

Advertisements
Track Severe Weather on mobile